createdAt,value
2018-12-18T00:00:41.577Z,31.93
2018-12-18T00:04:06.405Z,32.10
2018-12-18T00:07:31.048Z,36.00
2018-12-18T00:11:00.794Z,23.83
2018-12-18T00:14:25.493Z,29.40
2018-12-18T00:17:50.286Z,23.93
2018-12-18T00:21:15.095Z,24.57
2018-12-18T00:24:39.787Z,25.83
2018-12-18T00:28:04.420Z,27.77
2018-12-18T00:31:29.141Z,22.30
2018-12-18T00:34:53.785Z,23.10
2018-12-18T00:38:18.454Z,24.00
2018-12-18T00:41:43.876Z,21.83
2018-12-18T00:45:11.560Z,24.60
2018-12-18T00:48:36.237Z,27.17
2018-12-18T00:52:00.866Z,21.80
2018-12-18T00:55:25.518Z,32.83
2018-12-18T00:58:50.180Z,25.70
2018-12-18T01:02:14.835Z,29.83
2018-12-18T01:05:39.481Z,27.37
2018-12-18T01:09:05.220Z,25.63
2018-12-18T01:12:29.835Z,23.00
2018-12-18T01:15:54.493Z,28.33
2018-12-18T01:19:19.160Z,23.50
2018-12-18T01:22:43.838Z,29.30
2018-12-18T01:26:08.504Z,26.93
2018-12-18T01:29:33.175Z,20.03
2018-12-18T01:32:57.819Z,25.60
2018-12-18T01:36:22.468Z,20.50
2018-12-18T01:39:47.068Z,22.10
2018-12-18T01:43:11.765Z,23.57
2018-12-18T01:46:36.509Z,20.73
2018-12-18T01:50:01.219Z,29.50
2018-12-18T01:53:25.888Z,21.73
2018-12-18T01:56:50.530Z,22.60
2018-12-18T02:00:15.195Z,22.20
2018-12-18T02:03:39.852Z,21.97
2018-12-18T02:07:04.556Z,22.90
2018-12-18T02:10:29.259Z,18.67
2018-12-18T02:13:53.932Z,22.00
2018-12-18T02:17:18.651Z,21.93
2018-12-18T02:20:43.363Z,21.53
2018-12-18T02:24:08.073Z,29.90
2018-12-18T02:27:32.780Z,20.33
2018-12-18T02:30:57.447Z,25.00
2018-12-18T02:34:22.125Z,20.27
2018-12-18T02:37:46.928Z,19.07
2018-12-18T02:41:11.597Z,25.53
2018-12-18T02:44:36.213Z,22.10
2018-12-18T02:48:00.990Z,22.43
2018-12-18T02:51:25.783Z,25.23
2018-12-18T02:54:50.482Z,18.20
2018-12-18T02:58:15.176Z,16.57
2018-12-18T03:01:39.795Z,20.53
2018-12-18T03:05:04.747Z,19.83
2018-12-18T03:08:29.470Z,17.37
2018-12-18T03:11:54.171Z,17.97
2018-12-18T03:15:18.879Z,21.07
2018-12-18T03:18:44.006Z,14.27
2018-12-18T03:22:08.658Z,15.70
2018-12-18T03:25:33.367Z,31.20
2018-12-18T03:28:58.331Z,15.30
2018-12-18T03:32:28.939Z,17.13
2018-12-18T03:35:53.655Z,16.37
2018-12-18T03:39:18.298Z,17.17
2018-12-18T03:42:42.987Z,15.93
2018-12-18T03:46:07.714Z,13.50
2018-12-18T03:49:32.423Z,20.37
2018-12-18T03:52:57.119Z,17.23
2018-12-18T03:56:21.804Z,15.40
2018-12-18T03:59:46.488Z,18.87
2018-12-18T04:03:11.203Z,14.73
2018-12-18T04:06:35.928Z,16.00
2018-12-18T04:10:00.653Z,17.13
2018-12-18T04:13:25.337Z,19.27
2018-12-18T04:16:50.026Z,21.40
2018-12-18T04:20:14.836Z,19.17
2018-12-18T04:23:39.540Z,27.43
2018-12-18T04:27:04.293Z,21.13
2018-12-18T04:30:28.945Z,24.93
2018-12-18T04:33:53.559Z,23.07
2018-12-18T04:37:18.227Z,27.10
2018-12-18T04:40:42.843Z,29.57
2018-12-18T04:44:07.666Z,19.80
2018-12-18T04:47:32.264Z,22.23
2018-12-18T04:50:56.893Z,29.50
2018-12-18T04:54:21.528Z,18.10
2018-12-18T04:57:46.120Z,25.73
2018-12-18T05:01:10.783Z,24.87
2018-12-18T05:04:35.571Z,22.77
2018-12-18T05:08:00.239Z,20.13
2018-12-18T05:11:24.900Z,19.30
2018-12-18T05:14:49.520Z,20.77
2018-12-18T05:18:14.179Z,20.10
2018-12-18T05:21:38.826Z,20.87
2018-12-18T05:25:03.451Z,20.23
2018-12-18T05:28:28.101Z,22.67
2018-12-18T05:31:52.777Z,24.43
2018-12-18T05:35:17.411Z,27.80
2018-12-18T05:38:42.246Z,31.07
2018-12-18T05:42:06.898Z,21.73
2018-12-18T05:45:31.575Z,19.60
2018-12-18T05:48:56.180Z,18.20
2018-12-18T05:52:20.828Z,15.30
2018-12-18T05:55:45.540Z,20.43
2018-12-18T05:59:10.115Z,25.87
2018-12-18T06:02:34.718Z,23.40
2018-12-18T06:05:59.415Z,23.77
2018-12-18T06:09:24.089Z,29.67
2018-12-18T06:12:48.770Z,29.90
2018-12-18T06:16:13.434Z,30.53
2018-12-18T06:19:38.096Z,36.73
2018-12-18T06:23:02.737Z,31.20
2018-12-18T06:26:27.451Z,22.63
2018-12-18T06:29:52.166Z,33.50
2018-12-18T06:33:16.814Z,38.43
2018-12-18T06:36:41.525Z,26.77
2018-12-18T06:40:07.053Z,28.97
2018-12-18T06:43:31.712Z,15.87
2018-12-18T06:46:56.538Z,18.07
2018-12-18T06:50:21.238Z,26.13
2018-12-18T06:53:46.191Z,35.80
2018-12-18T06:57:10.960Z,39.97
2018-12-18T07:00:35.557Z,36.30
2018-12-18T07:04:00.146Z,25.37
2018-12-18T07:07:24.760Z,24.83
2018-12-18T07:10:49.443Z,40.77
2018-12-18T07:14:14.067Z,36.50
2018-12-18T07:17:38.732Z,30.03
2018-12-18T07:21:03.545Z,23.33
2018-12-18T07:24:28.235Z,22.40
2018-12-18T07:27:53.019Z,19.97
2018-12-18T07:31:17.810Z,17.30
2018-12-18T07:34:42.751Z,14.10
2018-12-18T07:38:07.657Z,21.17
2018-12-18T07:41:32.442Z,11.93
2018-12-18T07:44:57.211Z,15.57
2018-12-18T07:48:22.009Z,15.23
2018-12-18T07:51:46.773Z,20.50
2018-12-18T07:55:11.649Z,17.10
2018-12-18T07:58:36.309Z,13.47
2018-12-18T08:02:01.108Z,19.20
2018-12-18T08:05:29.917Z,21.10
2018-12-18T08:08:52.528Z,23.93
2018-12-18T08:12:19.443Z,20.00
2018-12-18T08:15:44.242Z,19.90
2018-12-18T08:19:09.078Z,26.30
2018-12-18T08:22:33.816Z,22.73
2018-12-18T08:25:58.540Z,33.87
2018-12-18T08:29:23.238Z,28.47
2018-12-18T08:32:48.061Z,26.00
2018-12-18T08:36:12.782Z,19.20
2018-12-18T08:39:37.534Z,13.00
2018-12-18T08:43:02.199Z,13.57
2018-12-18T08:46:30.571Z,11.93
2018-12-18T08:49:55.236Z,9.80
2018-12-18T08:53:19.898Z,12.33
2018-12-18T08:56:44.528Z,13.07
2018-12-18T09:00:10.435Z,7.70
2018-12-18T09:03:35.034Z,10.60
2018-12-18T09:06:59.726Z,5.60
2018-12-18T09:10:24.419Z,12.00
2018-12-18T09:13:49.180Z,13.37
2018-12-18T09:17:15.880Z,18.80
2018-12-18T09:20:40.639Z,14.50
2018-12-18T09:24:05.540Z,12.90
2018-12-18T09:27:30.260Z,16.67
2018-12-18T09:30:54.969Z,11.77
2018-12-18T09:34:19.868Z,15.33
2018-12-18T09:37:44.657Z,10.10
2018-12-18T09:41:15.015Z,22.40
2018-12-18T09:44:39.794Z,17.07
2018-12-18T09:48:04.539Z,10.23
2018-12-18T09:51:29.257Z,12.93
2018-12-18T09:54:54.104Z,26.10
2018-12-18T09:58:18.914Z,15.60
2018-12-18T10:01:43.702Z,12.90
2018-12-18T10:05:08.518Z,9.40
2018-12-18T10:08:35.024Z,10.13
2018-12-18T10:11:59.700Z,27.45
2018-12-18T10:15:25.255Z,31.12
2018-12-18T10:18:49.916Z,28.23
2018-12-18T10:22:14.547Z,26.87
2018-12-18T10:25:39.260Z,25.92
2018-12-18T10:29:03.972Z,14.70
2018-12-18T10:32:28.630Z,9.83
2018-12-18T10:35:53.291Z,9.95
2018-12-18T10:39:17.938Z,11.88
2018-12-18T10:42:42.629Z,11.93
2018-12-18T10:46:07.306Z,10.33
2018-12-18T10:49:31.975Z,9.53
2018-12-18T10:52:56.798Z,7.23
2018-12-18T10:56:21.644Z,10.43
2018-12-18T10:59:46.294Z,10.60
2018-12-18T11:03:10.956Z,10.57
2018-12-18T11:06:35.646Z,7.00
2018-12-18T11:10:01.169Z,6.17
2018-12-18T11:13:25.847Z,7.43
2018-12-18T11:16:50.511Z,10.27
2018-12-18T11:20:15.234Z,12.27
2018-12-18T11:23:40.012Z,7.97
2018-12-18T11:27:04.684Z,9.03
2018-12-18T11:30:29.422Z,10.50
2018-12-18T11:33:54.209Z,9.70
2018-12-18T11:37:18.951Z,9.33
2018-12-18T11:40:43.721Z,10.70
2018-12-18T11:44:08.441Z,12.33
2018-12-18T11:47:33.354Z,6.37
2018-12-18T11:50:58.180Z,10.73
2018-12-18T11:54:23.041Z,5.83
2018-12-18T11:57:47.856Z,9.90
2018-12-18T12:01:12.713Z,12.03
2018-12-18T12:04:37.455Z,6.60
2018-12-18T12:08:02.306Z,10.97
2018-12-18T12:11:26.972Z,11.23
2018-12-18T12:14:51.750Z,9.83
2018-12-18T12:18:16.395Z,13.87
2018-12-18T12:21:41.647Z,10.50
2018-12-18T12:25:07.309Z,14.33
2018-12-18T12:28:31.909Z,14.87
2018-12-18T12:31:56.531Z,19.73
2018-12-18T12:35:21.202Z,12.25
2018-12-18T12:38:45.918Z,13.70
2018-12-18T12:42:10.660Z,13.60
2018-12-18T12:45:35.619Z,16.05
2018-12-18T12:52:38.630Z,16.25
2018-12-18T12:56:03.324Z,10.80
2018-12-18T12:59:28.034Z,24.02
2018-12-18T13:02:52.693Z,10.98
2018-12-18T13:06:17.380Z,8.03
2018-12-18T13:09:42.123Z,6.37
2018-12-18T13:13:06.793Z,10.43
2018-12-18T13:16:31.410Z,8.50
2018-12-18T13:19:56.018Z,9.75
2018-12-18T13:23:20.764Z,8.55
2018-12-18T13:26:45.410Z,9.17
2018-12-18T13:30:10.181Z,13.13
2018-12-18T13:33:34.786Z,6.90
2018-12-18T13:36:59.407Z,7.40
2018-12-18T13:40:24.034Z,9.37
2018-12-18T13:43:48.640Z,8.53
2018-12-18T13:47:13.256Z,10.00
2018-12-18T13:50:37.887Z,14.90
2018-12-18T13:54:02.531Z,12.93
2018-12-18T13:57:27.214Z,15.50
2018-12-18T14:00:51.817Z,9.80
2018-12-18T14:04:16.440Z,8.77
2018-12-18T14:07:41.080Z,9.03
2018-12-18T14:11:05.721Z,6.97
2018-12-18T14:14:30.368Z,9.13
2018-12-18T14:17:55.115Z,12.00
2018-12-18T14:21:19.737Z,17.17
2018-12-18T14:24:44.361Z,13.53
2018-12-18T14:28:09.098Z,11.10
2018-12-18T14:31:33.739Z,14.77
2018-12-18T14:34:58.373Z,11.63
2018-12-18T14:38:22.973Z,14.93
2018-12-18T14:41:47.600Z,8.13
2018-12-18T14:45:12.254Z,10.53
2018-12-18T14:48:36.866Z,10.00
2018-12-18T14:52:01.530Z,7.83
2018-12-18T14:55:26.210Z,9.23
2018-12-18T14:58:50.815Z,9.27
2018-12-18T15:02:15.515Z,11.03
2018-12-18T15:05:40.280Z,10.10
2018-12-18T15:09:07.101Z,10.63
2018-12-18T15:12:31.737Z,7.43
2018-12-18T15:15:56.397Z,6.37
2018-12-18T15:19:21.034Z,7.50
2018-12-18T15:22:45.656Z,8.10
2018-12-18T15:26:10.325Z,8.67
2018-12-18T15:29:35.806Z,10.00
2018-12-18T15:33:00.572Z,5.23
2018-12-18T15:36:25.217Z,9.13
2018-12-18T15:39:49.808Z,6.47
2018-12-18T15:43:14.406Z,9.43
2018-12-18T15:46:39.060Z,4.43
2018-12-18T15:50:03.714Z,9.07
2018-12-18T15:53:28.301Z,10.73
2018-12-18T15:56:52.933Z,7.20
2018-12-18T16:00:17.710Z,10.40
2018-12-18T16:03:42.393Z,8.57
2018-12-18T16:07:07.029Z,7.30
2018-12-18T16:10:31.638Z,10.73
2018-12-18T16:13:56.255Z,6.53
2018-12-18T16:17:20.854Z,5.77
2018-12-18T16:20:45.460Z,5.90
2018-12-18T16:24:10.063Z,7.00
2018-12-18T16:27:34.685Z,8.40
2018-12-18T16:30:59.281Z,6.63
2018-12-18T16:34:23.910Z,6.47
2018-12-18T16:37:48.509Z,11.57
2018-12-18T16:41:13.170Z,14.50
2018-12-18T16:44:37.799Z,13.00
2018-12-18T16:48:02.426Z,7.80
2018-12-18T16:51:27.040Z,8.00
2018-12-18T16:54:51.687Z,15.67
2018-12-18T16:58:16.275Z,5.17
2018-12-18T17:01:40.871Z,5.87
2018-12-18T17:05:07.018Z,5.40
2018-12-18T17:08:32.231Z,6.33
2018-12-18T17:11:57.072Z,5.70
2018-12-18T17:15:21.702Z,6.27
2018-12-18T17:18:46.374Z,10.77
2018-12-18T17:22:11.006Z,8.00
2018-12-18T17:25:35.595Z,8.17
2018-12-18T17:29:00.196Z,11.03
2018-12-18T17:32:25.385Z,7.77
2018-12-18T17:35:50.216Z,7.13
2018-12-18T17:39:15.012Z,5.00
2018-12-18T17:42:39.685Z,9.43
2018-12-18T17:46:04.437Z,7.63
2018-12-18T17:49:29.049Z,9.13
2018-12-18T17:52:53.865Z,9.33
2018-12-18T17:56:18.543Z,6.57
2018-12-18T17:59:43.265Z,9.67
2018-12-18T18:03:08.008Z,7.83
2018-12-18T18:06:32.676Z,7.27
2018-12-18T18:09:58.168Z,9.23
2018-12-18T18:13:23.091Z,9.23
2018-12-18T18:16:48.234Z,10.63
2018-12-18T18:20:12.904Z,8.40
2018-12-18T18:23:37.564Z,10.80
2018-12-18T18:27:02.240Z,9.40
2018-12-18T18:30:26.879Z,10.67
2018-12-18T18:33:51.508Z,11.60
2018-12-18T18:37:16.156Z,12.00
2018-12-18T18:40:40.845Z,14.97
2018-12-18T18:44:05.602Z,11.23
2018-12-18T18:47:30.214Z,8.57
2018-12-18T18:50:57.550Z,12.57
2018-12-18T18:54:22.167Z,9.60
2018-12-18T18:57:46.819Z,15.47
2018-12-18T19:01:11.553Z,15.27
2018-12-18T19:04:36.358Z,13.57
2018-12-18T19:08:01.029Z,14.30
2018-12-18T19:11:25.636Z,13.07
2018-12-18T19:14:50.336Z,14.07
2018-12-18T19:18:15.011Z,16.50
2018-12-18T19:21:39.727Z,14.07
2018-12-18T19:25:04.549Z,11.97
2018-12-18T19:28:29.414Z,12.53
2018-12-18T19:31:54.053Z,15.63
2018-12-18T19:35:18.720Z,13.23
2018-12-18T19:38:43.412Z,13.63
2018-12-18T19:42:08.661Z,11.67
2018-12-18T19:45:33.652Z,16.30
2018-12-18T19:48:58.430Z,14.33
2018-12-18T19:52:23.071Z,10.80
2018-12-18T19:55:48.370Z,11.07
2018-12-18T19:59:13.006Z,9.80
2018-12-18T20:02:37.738Z,12.93
2018-12-18T20:06:02.555Z,10.07
2018-12-18T20:09:27.222Z,14.40
2018-12-18T20:12:51.883Z,12.73
2018-12-18T20:16:16.521Z,10.30
2018-12-18T20:19:41.511Z,11.87
2018-12-18T20:23:06.318Z,12.30
2018-12-18T20:26:30.971Z,10.33
2018-12-18T20:29:55.755Z,10.67
2018-12-18T20:33:20.438Z,12.47
2018-12-18T20:36:46.075Z,12.77
2018-12-18T20:40:11.934Z,12.97
2018-12-18T20:43:36.598Z,10.30
2018-12-18T20:47:01.820Z,8.73
2018-12-18T20:50:26.706Z,12.03
2018-12-18T20:53:51.495Z,14.47
2018-12-18T20:57:16.225Z,12.30
2018-12-18T21:00:40.882Z,13.03
2018-12-18T21:04:05.875Z,10.20
2018-12-18T21:07:30.814Z,18.50
2018-12-18T21:10:55.613Z,12.53
2018-12-18T21:14:20.335Z,12.13
2018-12-18T21:17:44.677Z,10.87
2018-12-18T21:21:15.232Z,10.37
2018-12-18T21:24:36.253Z,8.07
2018-12-18T21:28:04.444Z,8.00
2018-12-18T21:31:33.016Z,10.60
2018-12-18T21:34:57.706Z,8.87
2018-12-18T21:38:22.949Z,13.43
2018-12-18T21:42:10.889Z,10.17
2018-12-18T21:45:41.926Z,9.17
2018-12-18T22:05:38.245Z,18.83
2018-12-18T22:12:36.823Z,25.10
2018-12-18T22:16:01.510Z,25.13
2018-12-18T22:19:26.356Z,19.37
2018-12-18T22:22:51.214Z,14.93
2018-12-18T22:26:15.973Z,16.90
2018-12-18T22:29:40.666Z,18.87
2018-12-18T22:33:05.330Z,17.63
2018-12-18T22:36:30.003Z,11.13
2018-12-18T22:39:54.735Z,14.60
2018-12-18T22:43:19.413Z,9.77
2018-12-18T22:46:44.084Z,8.70
2018-12-18T22:50:09.487Z,12.50
2018-12-18T22:53:34.163Z,8.73
2018-12-18T22:56:58.896Z,8.83
2018-12-18T23:00:28.780Z,9.87
2018-12-18T23:03:53.113Z,11.07
2018-12-18T23:07:17.815Z,18.43
2018-12-18T23:10:42.456Z,11.47
2018-12-18T23:14:07.119Z,22.47
2018-12-18T23:17:31.791Z,18.80
2018-12-18T23:20:56.467Z,22.23
2018-12-18T23:24:21.226Z,17.37
2018-12-18T23:27:45.936Z,20.97
2018-12-18T23:31:10.610Z,33.97
2018-12-18T23:34:35.282Z,19.50
2018-12-18T23:37:59.971Z,21.27
2018-12-18T23:41:24.647Z,15.07
2018-12-18T23:44:49.395Z,19.63
2018-12-18T23:48:14.343Z,39.63
2018-12-18T23:51:39.034Z,27.07
2018-12-18T23:55:03.767Z,18.13
2018-12-18T23:58:28.456Z,10.53
